createdAt,value
2018-07-12T00:01:39.375Z,17.16
2018-07-12T00:04:05.637Z,17.14
2018-07-12T00:06:31.865Z,17.13
2018-07-12T00:08:58.058Z,17.08
2018-07-12T00:11:24.289Z,17.18
2018-07-12T00:13:50.557Z,17.16
2018-07-12T00:16:16.824Z,17.17
2018-07-12T00:18:43.121Z,17.19
2018-07-12T00:21:09.484Z,17.15
2018-07-12T00:23:35.681Z,17.18
2018-07-12T00:26:01.927Z,17.19
2018-07-12T00:28:28.171Z,17.12
2018-07-12T00:30:54.427Z,17.10
2018-07-12T00:33:20.730Z,17.17
2018-07-12T00:35:47.297Z,17.11
2018-07-12T00:38:13.597Z,17.11
2018-07-12T00:40:39.798Z,17.10
2018-07-12T00:43:06.092Z,17.06
2018-07-12T00:45:32.320Z,17.04
2018-07-12T00:47:58.573Z,17.05
2018-07-12T00:50:24.777Z,17.06
2018-07-12T00:52:51.065Z,17.05
2018-07-12T00:55:17.315Z,17.11
2018-07-12T00:57:43.549Z,17.10
2018-07-12T01:00:09.828Z,17.14
2018-07-12T01:02:36.079Z,17.08
2018-07-12T01:05:02.558Z,16.84
2018-07-12T01:07:28.820Z,17.15
2018-07-12T01:09:55.083Z,17.15
2018-07-12T01:12:21.931Z,17.15
2018-07-12T01:14:48.646Z,16.79
2018-07-12T01:17:14.917Z,17.29
2018-07-12T01:19:42.216Z,17.31
2018-07-12T01:22:08.447Z,17.34
2018-07-12T01:24:34.722Z,17.33
2018-07-12T01:27:00.962Z,17.30
2018-07-12T01:29:27.267Z,17.31
2018-07-12T01:31:53.632Z,17.32
2018-07-12T01:34:19.861Z,17.30
2018-07-12T01:36:46.132Z,17.29
2018-07-12T01:39:12.685Z,17.26
2018-07-12T01:41:38.977Z,17.28
2018-07-12T01:44:05.379Z,17.31
2018-07-12T01:46:31.640Z,17.27
2018-07-12T01:48:57.925Z,17.28
2018-07-12T01:51:25.051Z,17.32
2018-07-12T01:53:51.267Z,16.91
2018-07-12T01:56:17.569Z,17.36
2018-07-12T01:58:44.164Z,17.37
2018-07-12T02:01:10.510Z,17.24
2018-07-12T02:03:37.179Z,17.38
2018-07-12T02:06:03.996Z,17.40
2018-07-12T02:08:31.589Z,17.43
2018-07-12T02:10:57.886Z,17.44
2018-07-12T02:13:27.955Z,17.53
2018-07-12T02:15:54.154Z,17.53
2018-07-12T02:18:21.235Z,17.51
2018-07-12T02:20:47.481Z,17.48
2018-07-12T02:23:15.735Z,17.48
2018-07-12T02:25:42.001Z,17.52
2018-07-12T02:28:10.064Z,17.48
2018-07-12T02:30:36.335Z,17.42
2018-07-12T02:33:02.649Z,17.41
2018-07-12T02:35:28.891Z,17.39
2018-07-12T02:37:55.154Z,17.42
2018-07-12T02:40:22.503Z,17.38
2018-07-12T02:42:48.724Z,17.34
2018-07-12T02:45:18.400Z,17.39
2018-07-12T02:47:44.639Z,17.34
2018-07-12T02:50:12.216Z,17.32
2018-07-12T02:52:38.488Z,17.30
2018-07-12T02:55:06.249Z,17.23
2018-07-12T02:57:32.482Z,17.28
2018-07-12T03:00:02.326Z,17.24
2018-07-12T03:02:28.603Z,17.16
2018-07-12T03:04:55.440Z,17.12
2018-07-12T03:07:21.761Z,17.11
2018-07-12T03:09:48.011Z,17.16
2018-07-12T03:12:14.310Z,17.05
2018-07-12T03:14:40.518Z,17.01
2018-07-12T03:17:07.474Z,17.02
2018-07-12T03:19:33.731Z,16.98
2018-07-12T03:22:03.841Z,16.95
2018-07-12T03:24:30.103Z,16.95
2018-07-12T03:26:57.875Z,16.87
2018-07-12T03:29:24.166Z,16.77
2018-07-12T03:31:51.143Z,16.70
2018-07-12T03:34:17.382Z,16.59
2018-07-12T03:36:47.630Z,16.50
2018-07-12T03:39:13.870Z,16.48
2018-07-12T03:41:40.886Z,16.35
2018-07-12T03:44:07.203Z,16.30
2018-07-12T03:46:33.473Z,16.32
2018-07-12T03:48:59.760Z,16.29
2018-07-12T03:51:25.975Z,16.37
2018-07-12T03:53:54.789Z,16.61
2018-07-12T03:56:21.084Z,16.79
2018-07-12T03:58:47.364Z,16.64
2018-07-12T04:01:13.846Z,16.54
2018-07-12T04:03:42.003Z,16.46
2018-07-12T04:06:08.240Z,16.68
2018-07-12T04:08:38.395Z,16.82
2018-07-12T04:11:04.712Z,16.65
2018-07-12T04:13:31.855Z,16.70
2018-07-12T04:15:58.117Z,16.75
2018-07-12T04:18:26.294Z,16.67
2018-07-12T04:20:52.522Z,16.72
2018-07-12T04:23:18.739Z,16.69
2018-07-12T04:25:44.942Z,16.68
2018-07-12T04:28:11.199Z,16.68
2018-07-12T04:30:38.439Z,16.68
2018-07-12T04:33:04.672Z,16.97
2018-07-12T04:35:32.784Z,17.16
2018-07-12T04:37:59.024Z,17.05
2018-07-12T04:40:27.218Z,17.02
2018-07-12T04:42:53.409Z,16.99
2018-07-12T04:45:23.294Z,17.01
2018-07-12T04:47:49.582Z,16.97
2018-07-12T04:50:17.134Z,17.03
2018-07-12T04:52:43.350Z,16.98
2018-07-12T04:55:11.552Z,17.04
2018-07-12T04:57:37.815Z,17.10
2018-07-12T05:00:03.993Z,17.03
2018-07-12T05:02:30.199Z,16.93
2018-07-12T05:04:56.448Z,17.09
2018-07-12T05:07:23.607Z,17.15
2018-07-12T05:09:49.823Z,17.19
2018-07-12T05:12:17.957Z,17.35
2018-07-12T05:14:45.284Z,17.44
2018-07-12T05:17:12.953Z,17.45
2018-07-12T05:19:39.266Z,17.51
2018-07-12T05:22:08.822Z,17.46
2018-07-12T05:24:35.045Z,17.44
2018-07-12T05:27:01.843Z,17.57
2018-07-12T05:29:28.076Z,17.54
2018-07-12T05:31:57.851Z,17.55
2018-07-12T05:34:24.034Z,17.50
2018-07-12T05:36:54.371Z,17.49
2018-07-12T05:39:21.687Z,17.48
2018-07-12T05:41:49.075Z,17.44
2018-07-12T05:44:16.764Z,17.45
2018-07-12T05:46:44.039Z,17.44
2018-07-12T05:49:11.299Z,17.39
2018-07-12T05:51:38.624Z,17.40
2018-07-12T05:54:06.131Z,17.36
2018-07-12T05:56:33.441Z,17.33
2018-07-12T05:59:00.760Z,17.34
2018-07-12T06:01:39.705Z,17.45
2018-07-12T06:04:07.036Z,17.46
2018-07-12T06:06:34.274Z,17.53
2018-07-12T06:09:01.707Z,17.57
2018-07-12T06:11:29.034Z,17.56
2018-07-12T06:13:56.321Z,17.64
2018-07-12T06:16:23.661Z,17.68
2018-07-12T06:18:50.948Z,17.74
2018-07-12T06:21:18.211Z,17.52
2018-07-12T06:23:45.572Z,17.81
2018-07-12T06:26:13.170Z,17.92
2018-07-12T06:28:40.565Z,17.81
2018-07-12T06:31:07.841Z,17.79
2018-07-12T06:33:35.102Z,17.81
2018-07-12T06:36:02.508Z,17.89
2018-07-12T06:38:29.837Z,18.00
2018-07-12T06:40:57.183Z,18.04
2018-07-12T06:43:24.566Z,18.06
2018-07-12T06:45:51.813Z,18.02
2018-07-12T06:48:19.039Z,17.99
2018-07-12T06:50:46.453Z,17.98
2018-07-12T06:53:13.826Z,17.99
2018-07-12T06:55:41.166Z,18.17
2018-07-12T06:58:08.457Z,18.36
2018-07-12T07:00:35.795Z,18.47
2018-07-12T07:03:03.268Z,18.33
2018-07-12T07:05:30.652Z,18.28
2018-07-12T07:07:58.047Z,18.24
2018-07-12T07:10:25.356Z,18.28
2018-07-12T07:12:52.622Z,18.28
2018-07-12T07:15:20.001Z,18.16
2018-07-12T07:17:47.265Z,18.09
2018-07-12T07:20:14.746Z,18.26
2018-07-12T07:22:42.078Z,18.23
2018-07-12T07:25:09.423Z,18.29
2018-07-12T07:27:36.676Z,18.30
2018-07-12T07:30:04.259Z,18.45
2018-07-12T07:32:31.564Z,18.38
2018-07-12T07:34:58.887Z,18.44
2018-07-12T07:37:26.192Z,18.54
2018-07-12T07:39:53.536Z,18.54
2018-07-12T07:42:20.780Z,18.39
2018-07-12T07:44:48.006Z,18.30
2018-07-12T07:47:15.270Z,18.12
2018-07-12T07:49:42.747Z,17.91
2018-07-12T07:52:10.076Z,17.86
2018-07-12T07:54:37.401Z,17.89
2018-07-12T07:57:05.005Z,17.90
2018-07-12T07:59:32.244Z,17.86
2018-07-12T08:01:59.539Z,17.99
2018-07-12T08:04:26.889Z,17.86
2018-07-12T08:06:54.363Z,17.89
2018-07-12T08:09:21.699Z,18.01
2018-07-12T08:11:49.102Z,18.22
2018-07-12T08:14:16.442Z,18.54
2018-07-12T08:16:43.759Z,18.73
2018-07-12T08:19:11.080Z,18.88
2018-07-12T08:21:38.347Z,19.00
2018-07-12T08:24:05.749Z,19.07
2018-07-12T08:26:33.028Z,19.27
2018-07-12T08:29:00.352Z,19.41
2018-07-12T08:31:27.716Z,19.62
2018-07-12T08:33:55.056Z,19.59
2018-07-12T08:36:22.419Z,19.39
2018-07-12T08:38:49.664Z,19.65
2018-07-12T08:41:16.998Z,19.84
2018-07-12T08:43:44.294Z,19.93
2018-07-12T08:46:11.599Z,19.91
2018-07-12T08:48:38.929Z,20.05
2018-07-12T08:51:06.330Z,20.14
2018-07-12T08:53:33.628Z,20.16
2018-07-12T08:56:00.972Z,20.64
2018-07-12T08:58:28.268Z,20.82
2018-07-12T09:00:55.628Z,20.95
2018-07-12T09:03:22.929Z,21.28
2018-07-12T09:05:50.309Z,21.32
2018-07-12T09:08:17.656Z,21.35
2018-07-12T09:10:44.951Z,21.57
2018-07-12T09:13:12.182Z,21.85
2018-07-12T09:15:39.455Z,22.30
2018-07-12T09:18:06.744Z,22.44
2018-07-12T09:20:34.188Z,22.70
2018-07-12T09:23:01.457Z,22.85
2018-07-12T09:25:28.847Z,23.22
2018-07-12T09:27:56.116Z,23.55
2018-07-12T09:30:23.400Z,24.11
2018-07-12T09:32:50.783Z,24.22
2018-07-12T09:35:17.990Z,24.06
2018-07-12T09:37:45.326Z,23.94
2018-07-12T09:40:12.709Z,23.68
2018-07-12T09:42:40.007Z,23.71
2018-07-12T09:45:07.498Z,23.79
2018-07-12T09:47:34.918Z,24.00
2018-07-12T09:50:02.249Z,24.42
2018-07-12T09:52:31.950Z,24.61
2018-07-12T09:54:59.391Z,24.67
2018-07-12T09:57:38.430Z,24.82
2018-07-12T10:00:05.753Z,25.41
2018-07-12T10:02:38.783Z,25.55
2018-07-12T10:05:10.987Z,25.80
2018-07-12T10:07:46.940Z,26.14
2018-07-12T10:10:14.253Z,26.30
2018-07-12T10:12:47.335Z,26.32
2018-07-12T10:15:19.211Z,26.12
2018-07-12T10:17:54.991Z,25.80
2018-07-12T10:20:22.372Z,25.13
2018-07-12T10:22:49.728Z,25.22
2018-07-12T10:25:17.039Z,26.09
2018-07-12T10:27:44.339Z,25.97
2018-07-12T10:30:11.711Z,25.23
2018-07-12T10:32:39.055Z,24.82
2018-07-12T10:35:06.341Z,24.47
2018-07-12T10:37:33.649Z,24.41
2018-07-12T10:40:00.893Z,24.47
2018-07-12T10:42:28.266Z,24.44
2018-07-12T10:44:55.645Z,25.23
2018-07-12T10:47:22.913Z,25.21
2018-07-12T10:49:50.302Z,25.26
2018-07-12T10:52:17.612Z,25.45
2018-07-12T10:54:44.820Z,25.43
2018-07-12T10:57:12.114Z,26.02
2018-07-12T10:59:39.451Z,26.17
2018-07-12T11:02:06.779Z,25.83
2018-07-12T11:04:34.088Z,25.48
2018-07-12T11:07:01.441Z,24.92
2018-07-12T11:09:28.696Z,25.07
2018-07-12T11:11:56.028Z,25.77
2018-07-12T11:14:23.476Z,26.47
2018-07-12T11:16:50.835Z,26.85
2018-07-12T11:19:18.135Z,26.97
2018-07-12T11:21:45.356Z,27.31
2018-07-12T11:24:12.738Z,27.42
2018-07-12T11:26:40.019Z,26.86
2018-07-12T11:29:07.282Z,27.40
2018-07-12T11:31:34.548Z,27.58
2018-07-12T11:34:01.926Z,27.20
2018-07-12T11:36:29.288Z,26.97
2018-07-12T11:38:56.539Z,27.00
2018-07-12T11:41:23.936Z,27.52
2018-07-12T11:43:51.238Z,27.82
2018-07-12T11:46:18.527Z,27.76
2018-07-12T11:48:46.016Z,27.74
2018-07-12T11:51:13.378Z,27.48
2018-07-12T11:53:40.748Z,26.82
2018-07-12T11:56:08.134Z,26.93
2018-07-12T11:58:35.486Z,26.59
2018-07-12T12:01:02.899Z,26.58
2018-07-12T12:03:30.657Z,26.47
2018-07-12T12:05:57.954Z,26.35
2018-07-12T12:08:25.699Z,26.19
2018-07-12T12:10:53.013Z,25.62
2018-07-12T12:13:20.322Z,25.19
2018-07-12T12:15:47.644Z,25.21
2018-07-12T12:18:14.965Z,25.78
2018-07-12T12:20:42.295Z,26.90
2018-07-12T12:23:09.566Z,27.51
2018-07-12T12:25:36.939Z,27.97
2018-07-12T12:28:04.412Z,28.05
2018-07-12T12:30:31.675Z,28.16
2018-07-12T12:32:59.046Z,27.99
2018-07-12T12:35:26.413Z,27.50
2018-07-12T12:37:53.843Z,27.83
2018-07-12T12:40:21.237Z,28.24
2018-07-12T12:42:48.654Z,28.64
2018-07-12T12:45:16.082Z,29.16
2018-07-12T12:47:43.464Z,29.15
2018-07-12T12:50:10.771Z,28.67
2018-07-12T12:52:38.072Z,28.60
2018-07-12T12:55:05.873Z,28.59
2018-07-12T12:57:33.162Z,28.71
2018-07-12T13:00:00.582Z,28.70
2018-07-12T13:02:27.919Z,28.23
2018-07-12T13:04:55.277Z,27.67
2018-07-12T13:07:22.546Z,27.34
2018-07-12T13:09:49.973Z,27.16
2018-07-12T13:12:17.264Z,26.71
2018-07-12T13:14:45.471Z,26.40
2018-07-12T13:17:12.799Z,26.15
2018-07-12T13:19:40.156Z,25.98
2018-07-12T13:22:07.497Z,25.99
2018-07-12T13:24:34.724Z,26.14
2018-07-12T13:27:02.123Z,26.38
2018-07-12T13:29:29.508Z,27.06
2018-07-12T13:31:56.897Z,27.70
2018-07-12T13:34:24.113Z,28.09
2018-07-12T13:36:51.639Z,28.57
2018-07-12T13:39:18.948Z,29.02
2018-07-12T13:41:46.219Z,29.45
2018-07-12T13:44:20.591Z,28.82
2018-07-12T13:46:49.076Z,29.15
2018-07-12T13:49:19.323Z,29.32
2018-07-12T13:51:49.748Z,29.11
2018-07-12T13:54:17.596Z,28.94
2018-07-12T13:56:45.129Z,29.29
2018-07-12T13:59:12.547Z,29.48
2018-07-12T14:01:39.865Z,29.52
2018-07-12T14:04:08.320Z,29.79
2018-07-12T14:06:35.787Z,29.93
2018-07-12T14:09:04.075Z,29.97
2018-07-12T14:11:31.339Z,29.22
2018-07-12T14:13:58.620Z,28.74
2018-07-12T14:16:25.940Z,28.06
2018-07-12T14:18:53.256Z,27.62
2018-07-12T14:21:20.603Z,27.28
2018-07-12T14:23:47.816Z,27.39
2018-07-12T14:26:15.057Z,27.63
2018-07-12T14:28:43.009Z,28.30
2018-07-12T14:31:10.324Z,28.43
2018-07-12T14:33:37.607Z,28.14
2018-07-12T14:36:05.024Z,28.68
2018-07-12T14:38:32.302Z,28.66
2018-07-12T14:40:59.646Z,28.71
2018-07-12T14:43:26.908Z,28.65
2018-07-12T14:45:54.264Z,28.11
2018-07-12T14:48:21.516Z,27.71
2018-07-12T14:50:48.757Z,27.25
2018-07-12T14:53:16.012Z,26.94
2018-07-12T14:55:43.300Z,26.70
2018-07-12T14:58:10.624Z,27.06
2018-07-12T15:00:37.927Z,27.72
2018-07-12T15:03:05.223Z,28.30
2018-07-12T15:05:32.471Z,28.68
2018-07-12T15:07:59.837Z,28.70
2018-07-12T15:10:27.172Z,29.17
2018-07-12T15:12:54.529Z,29.44
2018-07-12T15:15:21.756Z,29.01
2018-07-12T15:17:49.087Z,29.01
2018-07-12T15:20:16.486Z,28.99
2018-07-12T15:22:43.797Z,29.05
2018-07-12T15:25:11.125Z,29.27
2018-07-12T15:27:38.488Z,29.64
2018-07-12T15:30:05.836Z,29.62
2018-07-12T15:32:33.136Z,29.41
2018-07-12T15:35:00.448Z,29.25
2018-07-12T15:37:27.725Z,29.46
2018-07-12T15:39:55.045Z,29.34
2018-07-12T15:42:22.402Z,29.29
2018-07-12T15:44:49.678Z,29.61
2018-07-12T15:47:17.028Z,29.44
2018-07-12T15:52:23.037Z,29.28
2018-07-12T15:54:50.404Z,29.30
2018-07-12T15:57:17.727Z,29.58
2018-07-12T15:59:45.048Z,29.53
2018-07-12T16:02:12.371Z,29.51
2018-07-12T16:04:39.690Z,29.26
2018-07-12T16:07:07.021Z,29.38
2018-07-12T16:09:34.292Z,29.49
2018-07-12T16:12:01.552Z,29.40
2018-07-12T16:14:28.835Z,29.41
2018-07-12T16:16:56.085Z,29.22
2018-07-12T16:19:23.310Z,29.39
2018-07-12T16:21:50.719Z,29.52
2018-07-12T16:24:17.999Z,29.63
2018-07-12T16:26:45.300Z,29.46
2018-07-12T16:29:12.595Z,29.11
2018-07-12T16:31:39.904Z,29.24
2018-07-12T16:34:07.318Z,29.03
2018-07-12T16:36:34.626Z,29.01
2018-07-12T16:39:01.912Z,28.50
2018-07-12T16:41:29.260Z,28.14
2018-07-12T16:43:56.513Z,28.08
2018-07-12T16:46:23.882Z,28.16
2018-07-12T16:48:51.177Z,28.13
2018-07-12T16:51:18.519Z,28.11
2018-07-12T16:53:45.869Z,28.10
2018-07-12T16:56:13.099Z,27.93
2018-07-12T16:58:40.478Z,27.76
2018-07-12T17:01:07.710Z,27.89
2018-07-12T17:03:35.028Z,27.83
2018-07-12T17:06:02.338Z,27.61
2018-07-12T17:08:29.834Z,27.39
2018-07-12T17:10:57.173Z,27.13
2018-07-12T17:13:24.504Z,26.83
2018-07-12T17:15:51.896Z,26.89
2018-07-12T17:18:19.156Z,26.56
2018-07-12T17:20:46.499Z,26.51
2018-07-12T17:23:13.868Z,26.40
2018-07-12T17:25:41.211Z,26.33
2018-07-12T17:28:09.246Z,26.28
2018-07-12T17:30:36.532Z,26.25
2018-07-12T17:33:03.934Z,26.14
2018-07-12T17:35:31.316Z,26.15
2018-07-12T17:37:58.619Z,26.12
2018-07-12T17:40:25.927Z,26.15
2018-07-12T17:42:53.303Z,26.21
2018-07-12T17:45:20.540Z,26.11
2018-07-12T17:47:47.825Z,25.90
2018-07-12T17:50:15.050Z,25.65
2018-07-12T17:52:42.394Z,25.52
2018-07-12T17:55:09.631Z,25.38
2018-07-12T17:57:36.935Z,25.41
2018-07-12T18:00:04.346Z,25.38
2018-07-12T18:02:31.642Z,25.13
2018-07-12T18:04:59.037Z,25.21
2018-07-12T18:07:26.302Z,25.16
2018-07-12T18:09:53.644Z,25.14
2018-07-12T18:12:21.083Z,25.04
2018-07-12T18:14:48.625Z,25.03
2018-07-12T18:17:15.984Z,24.99
2018-07-12T18:19:43.321Z,24.83
2018-07-12T18:22:10.689Z,24.70
2018-07-12T18:24:37.900Z,24.47
2018-07-12T18:27:05.214Z,24.46
2018-07-12T18:29:32.524Z,24.43
2018-07-12T18:31:59.812Z,24.41
2018-07-12T18:34:27.074Z,24.41
2018-07-12T18:36:54.329Z,24.36
2018-07-12T18:39:21.675Z,24.34
2018-07-12T18:41:48.995Z,24.26
2018-07-12T18:44:16.254Z,24.20
2018-07-12T18:46:43.549Z,24.03
2018-07-12T18:49:10.846Z,23.99
2018-07-12T18:51:38.199Z,23.89
2018-07-12T18:54:05.483Z,23.79
2018-07-12T18:56:32.765Z,23.77
2018-07-12T18:59:00.062Z,23.62
2018-07-12T19:01:27.442Z,23.58
2018-07-12T19:03:54.819Z,23.62
2018-07-12T19:06:22.219Z,23.51
2018-07-12T19:08:49.636Z,23.43
2018-07-12T19:11:16.852Z,23.40
2018-07-12T19:13:44.446Z,23.27
2018-07-12T19:16:11.795Z,23.17
2018-07-12T19:18:39.044Z,23.05
2018-07-12T19:21:06.387Z,23.03
2018-07-12T19:23:33.757Z,22.87
2018-07-12T19:26:01.118Z,22.80
2018-07-12T19:28:28.466Z,22.76
2018-07-12T19:30:55.881Z,22.70
2018-07-12T19:33:23.189Z,22.61
2018-07-12T19:35:50.576Z,22.46
2018-07-12T19:38:17.927Z,22.35
2018-07-12T19:40:45.189Z,22.27
2018-07-12T19:43:12.448Z,22.11
2018-07-12T19:45:39.727Z,21.97
2018-07-12T19:48:07.028Z,21.94
2018-07-12T19:50:34.283Z,21.87
2018-07-12T19:53:01.577Z,21.79
2018-07-12T19:55:28.937Z,21.73
2018-07-12T19:57:56.263Z,21.63
2018-07-12T20:00:23.622Z,21.64
2018-07-12T20:05:28.184Z,21.44
2018-07-12T20:07:55.470Z,21.44
2018-07-12T20:10:22.847Z,21.33
2018-07-12T20:12:50.205Z,21.22
2018-07-12T20:15:17.509Z,21.14
2018-07-12T20:17:44.764Z,20.99
2018-07-12T20:20:11.987Z,20.96
2018-07-12T20:22:39.390Z,20.83
2018-07-12T20:25:06.715Z,20.83
2018-07-12T20:27:34.009Z,20.72
2018-07-12T20:30:01.386Z,20.66
2018-07-12T20:32:28.659Z,20.62
2018-07-12T20:34:56.015Z,20.55
2018-07-12T20:37:23.338Z,20.52
2018-07-12T20:39:50.722Z,20.45
2018-07-12T20:42:18.014Z,20.27
2018-07-12T20:44:45.604Z,20.28
2018-07-12T20:47:12.972Z,20.24
2018-07-12T20:49:40.323Z,20.17
2018-07-12T20:52:07.769Z,20.03
2018-07-12T20:54:35.121Z,19.95
2018-07-12T20:57:02.553Z,19.95
2018-07-12T20:59:29.958Z,19.87
2018-07-12T21:01:57.294Z,19.88
2018-07-12T21:04:24.688Z,19.85
2018-07-12T21:06:52.258Z,19.81
2018-07-12T21:09:19.660Z,19.72
2018-07-12T21:11:46.960Z,19.68
2018-07-12T21:14:14.267Z,19.62
2018-07-12T21:16:41.634Z,19.53
2018-07-12T21:19:09.008Z,19.48
2018-07-12T21:21:36.316Z,19.44
2018-07-12T21:24:03.630Z,19.41
2018-07-12T21:26:30.920Z,19.39
2018-07-12T21:28:58.295Z,19.31
2018-07-12T21:31:25.624Z,19.20
2018-07-12T21:33:52.964Z,19.17
2018-07-12T21:36:20.325Z,19.09
2018-07-12T21:38:47.617Z,19.04
2018-07-12T21:41:15.001Z,18.92
2018-07-12T21:43:42.300Z,18.90
2018-07-12T21:46:09.603Z,18.81
2018-07-12T21:48:36.963Z,18.78
2018-07-12T21:51:04.243Z,18.79
2018-07-12T21:53:31.766Z,18.73
2018-07-12T21:55:59.028Z,18.63
2018-07-12T21:58:26.464Z,18.61
2018-07-12T22:00:53.919Z,18.51
2018-07-12T22:03:21.215Z,18.48
2018-07-12T22:05:48.556Z,18.45
2018-07-12T22:08:22.434Z,18.37
2018-07-12T22:10:51.056Z,18.31
2018-07-12T22:13:19.844Z,18.33
2018-07-12T22:15:47.204Z,18.31
2018-07-12T22:18:14.518Z,18.24
2018-07-12T22:20:43.350Z,18.24
2018-07-12T22:23:10.732Z,18.26
2018-07-12T22:25:38.188Z,18.23
2018-07-12T22:28:05.633Z,18.09
2018-07-12T22:30:33.056Z,18.00
2018-07-12T22:33:01.923Z,17.78
2018-07-12T22:35:29.220Z,17.88
2018-07-12T22:37:57.352Z,17.87
2018-07-12T22:40:24.739Z,17.79
2018-07-12T22:42:52.067Z,17.77
2018-07-12T22:45:19.386Z,17.77
2018-07-12T22:47:46.699Z,17.72
2018-07-12T22:50:13.983Z,17.75
2018-07-12T22:52:41.321Z,17.71
2018-07-12T22:55:08.674Z,17.65
2018-07-12T22:57:36.159Z,17.86
2018-07-12T23:00:03.818Z,17.93
2018-07-12T23:02:31.166Z,17.89
2018-07-12T23:04:58.516Z,17.96
2018-07-12T23:07:25.836Z,17.88
2018-07-12T23:09:53.123Z,17.89
2018-07-12T23:12:20.528Z,17.97
2018-07-12T23:14:49.086Z,17.91
2018-07-12T23:17:16.471Z,17.95
2018-07-12T23:19:44.215Z,17.90
2018-07-12T23:22:11.563Z,17.86
2018-07-12T23:24:38.933Z,17.88
2018-07-12T23:27:06.212Z,17.92
2018-07-12T23:29:33.752Z,17.87
2018-07-12T23:32:01.151Z,17.88
2018-07-12T23:34:28.485Z,17.80
2018-07-12T23:36:55.768Z,17.91
2018-07-12T23:39:23.594Z,17.62
2018-07-12T23:41:51.010Z,17.53
2018-07-12T23:44:20.523Z,17.49
2018-07-12T23:46:47.913Z,17.49
2018-07-12T23:49:15.338Z,17.53
2018-07-12T23:51:42.659Z,17.58
2018-07-12T23:54:09.980Z,17.48
2018-07-12T23:56:37.275Z,17.47
2018-07-12T23:59:04.713Z,17.44
